首页
METAR-TAF:

METAR-TAF

机场 :

朱瓦塔国际机场

塔拉卡恩, 印度尼西亚

纬度: 03-19-36N, 经度: 117-33-56E, 海拔: 6米

当前天气观测

该预报发布于45分钟前的06:00 UTC
风速3节,风向东南
温度 31°C
湿度 75%
气压 1007 hPa
能見度: 8000
散云层高于1500英尺
小雨,

METAR: WAQQ 220600Z 13003KT 8000 -RA SCT015 31/26 Q1007 NOSIG

时间: 13:45 (06:45 UTC)

预报

该预报发布于1小时和45分钟前的05:00 UTC
预报有效从22日的 06点(UTC)到 22日的 18点(UTC)
风速5节,风向南转西南
能见度10公里或以上
散云层高于1500英尺

TAF: WAQQ 220500Z 2206/2218 20005KT 9999 SCT015

超过4000个机场的气象观测和天气预报(METAR&TAF报告)。

可查询的气象台以黄色和红色小点在地图上表示。

将鼠标移到小点上方,可查看气象台名称。

然后点击查看天气观测和预报。

如需切换地图:点击带黑十字的绿色按钮放大地图;点击带横线的绿色按钮缩小地图;或者点击绿色箭头查看邻近地区的地图。


METAR-TAF: